sensor_id;sensor_type;location;lat;lon;timestamp;pressure;altitude;pressure_sealevel;temperature;humidity
65754;BME280;52488;47.502;18.940;2023-03-14T00:00:39;97245.66;;;9.56;49.72
65754;BME280;52488;47.502;18.940;2023-03-14T00:01:44;97246.50;;;9.58;49.60
65754;BME280;52488;47.502;18.940;2023-03-14T00:02:54;97246.38;;;9.56;49.83
65754;BME280;52488;47.502;18.940;2023-03-14T00:03:57;97252.81;;;9.49;49.94
65754;BME280;52488;47.502;18.940;2023-03-14T00:05:00;97245.88;;;9.36;50.33
65754;BME280;52488;47.502;18.940;2023-03-14T00:06:10;97245.78;;;9.34;50.48
65754;BME280;52488;47.502;18.940;2023-03-14T00:07:13;97236.72;;;9.32;50.73
65754;BME280;52488;47.502;18.940;2023-03-14T00:08:18;97235.28;;;9.31;50.88
65754;BME280;52488;47.502;18.940;2023-03-14T00:09:24;97234.31;;;9.38;50.80
65754;BME280;52488;47.502;18.940;2023-03-14T00:10:29;97233.03;;;9.39;50.66
65754;BME280;52488;47.502;18.940;2023-03-14T00:11:32;97234.94;;;9.48;50.16
65754;BME280;52488;47.502;18.940;2023-03-14T00:12:35;97234.56;;;9.53;50.22
65754;BME280;52488;47.502;18.940;2023-03-14T00:13:39;97227.91;;;9.57;50.19
65754;BME280;52488;47.502;18.940;2023-03-14T00:14:42;97241.84;;;9.49;50.49
65754;BME280;52488;47.502;18.940;2023-03-14T00:15:46;97223.12;;;9.45;50.66
65754;BME280;52488;47.502;18.940;2023-03-14T00:16:49;97228.63;;;9.45;50.55
65754;BME280;52488;47.502;18.940;2023-03-14T00:17:53;97220.84;;;9.53;50.36
65754;BME280;52488;47.502;18.940;2023-03-14T00:18:58;97224.44;;;9.44;50.65
65754;BME280;52488;47.502;18.940;2023-03-14T00:20:02;97218.63;;;9.50;50.84
65754;BME280;52488;47.502;18.940;2023-03-14T00:21:12;97226.84;;;9.50;50.81
65754;BME280;52488;47.502;18.940;2023-03-14T00:22:16;97220.38;;;9.57;50.95
65754;BME280;52488;47.502;18.940;2023-03-14T00:23:19;97210.84;;;9.58;51.11
65754;BME280;52488;47.502;18.940;2023-03-14T00:24:22;97206.66;;;9.69;50.96
65754;BME280;52488;47.502;18.940;2023-03-14T00:25:25;97203.91;;;9.69;50.48
65754;BME280;52488;47.502;18.940;2023-03-14T00:26:28;97204.88;;;9.73;50.45
65754;BME280;52488;47.502;18.940;2023-03-14T00:27:31;97214.19;;;9.68;50.55
65754;BME280;52488;47.502;18.940;2023-03-14T00:28:35;97206.41;;;9.65;50.67
65754;BME280;52488;47.502;18.940;2023-03-14T00:29:38;97212.50;;;9.63;50.42
65754;BME280;52488;47.502;18.940;2023-03-14T00:30:41;97204.66;;;9.58;50.35
65754;BME280;52488;47.502;18.940;2023-03-14T00:31:45;97213.34;;;9.54;50.38
65754;BME280;52488;47.502;18.940;2023-03-14T00:32:48;97196.53;;;9.60;51.44
65754;BME280;52488;47.502;18.940;2023-03-14T00:33:52;97199.25;;;9.71;51.59
65754;BME280;52488;47.502;18.940;2023-03-14T00:34:56;97204.97;;;9.75;51.55
65754;BME280;52488;47.502;18.940;2023-03-14T00:36:02;97204.50;;;9.79;51.17
65754;BME280;52488;47.502;18.940;2023-03-14T00:37:06;97194.25;;;9.79;50.78
65754;BME280;52488;47.502;18.940;2023-03-14T00:38:09;97207.12;;;9.77;50.89
65754;BME280;52488;47.502;18.940;2023-03-14T00:39:12;97177.19;;;9.81;50.71
65754;BME280;52488;47.502;18.940;2023-03-14T00:40:15;97196.75;;;9.75;51.08
65754;BME280;52488;47.502;18.940;2023-03-14T00:41:22;97189.84;;;9.74;51.21
65754;BME280;52488;47.502;18.940;2023-03-14T00:42:26;97181.97;;;9.81;50.92
65754;BME280;52488;47.502;18.940;2023-03-14T00:43:29;97185.31;;;9.79;50.83
65754;BME280;52488;47.502;18.940;2023-03-14T00:44:32;97191.41;;;9.77;51.19
65754;BME280;52488;47.502;18.940;2023-03-14T00:45:37;97187.44;;;9.81;51.02
65754;BME280;52488;47.502;18.940;2023-03-14T00:46:40;97187.56;;;9.71;51.26
65754;BME280;52488;47.502;18.940;2023-03-14T00:47:43;97181.28;;;9.68;51.12
65754;BME280;52488;47.502;18.940;2023-03-14T00:48:49;97196.66;;;9.62;51.25
65754;BME280;52488;47.502;18.940;2023-03-14T00:49:52;97198.44;;;9.57;51.37
65754;BME280;52488;47.502;18.940;2023-03-14T00:50:55;97181.16;;;9.55;51.47
65754;BME280;52488;47.502;18.940;2023-03-14T00:51:58;97190.69;;;9.53;51.36
65754;BME280;52488;47.502;18.940;2023-03-14T00:53:01;97187.00;;;9.49;51.57
65754;BME280;52488;47.502;18.940;2023-03-14T00:54:04;97191.78;;;9.48;51.52
65754;BME280;52488;47.502;18.940;2023-03-14T00:55:08;97174.84;;;9.52;51.24
65754;BME280;52488;47.502;18.940;2023-03-14T00:56:11;97175.69;;;9.43;51.61
65754;BME280;52488;47.502;18.940;2023-03-14T00:57:15;97173.44;;;9.39;51.96
65754;BME280;52488;47.502;18.940;2023-03-14T00:58:18;97172.84;;;9.41;52.27
65754;BME280;52488;47.502;18.940;2023-03-14T00:59:22;97179.75;;;9.42;52.40
65754;BME280;52488;47.502;18.940;2023-03-14T01:00:25;97179.38;;;9.47;52.28
65754;BME280;52488;47.502;18.940;2023-03-14T01:01:28;97169.84;;;9.48;52.04
65754;BME280;52488;47.502;18.940;2023-03-14T01:02:32;97171.16;;;9.47;52.15
65754;BME280;52488;47.502;18.940;2023-03-14T01:03:35;97172.22;;;9.42;52.33
65754;BME280;52488;47.502;18.940;2023-03-14T01:04:38;97168.66;;;9.40;52.25
65754;BME280;52488;47.502;18.940;2023-03-14T01:05:42;97167.00;;;9.35;52.47
65754;BME280;52488;47.502;18.940;2023-03-14T01:06:44;97171.53;;;9.30;52.67
65754;BME280;52488;47.502;18.940;2023-03-14T01:07:47;97171.88;;;9.24;52.79
65754;BME280;52488;47.502;18.940;2023-03-14T01:08:51;97161.38;;;9.33;52.49
65754;BME280;52488;47.502;18.940;2023-03-14T01:09:54;97165.69;;;9.36;52.33
65754;BME280;52488;47.502;18.940;2023-03-14T01:10:57;97166.50;;;9.26;52.55
65754;BME280;52488;47.502;18.940;2023-03-14T01:12:00;97167.13;;;9.25;52.52
65754;BME280;52488;47.502;18.940;2023-03-14T01:13:03;97166.66;;;9.29;52.09
65754;BME280;52488;47.502;18.940;2023-03-14T01:14:06;97162.12;;;9.45;51.46
65754;BME280;52488;47.502;18.940;2023-03-14T01:15:09;97159.72;;;9.39;51.63
65754;BME280;52488;47.502;18.940;2023-03-14T01:16:13;97153.91;;;9.33;51.82
65754;BME280;52488;47.502;18.940;2023-03-14T01:17:16;97161.16;;;9.29;51.89
65754;BME280;52488;47.502;18.940;2023-03-14T01:18:20;97149.72;;;9.20;52.17
65754;BME280;52488;47.502;18.940;2023-03-14T01:19:23;97144.84;;;9.19;52.31
65754;BME280;52488;47.502;18.940;2023-03-14T01:20:26;97147.94;;;9.25;52.10
65754;BME280;52488;47.502;18.940;2023-03-14T01:21:32;97141.84;;;9.26;51.99
65754;BME280;52488;47.502;18.940;2023-03-14T01:22:36;97127.44;;;9.26;52.14
65754;BME280;52488;47.502;18.940;2023-03-14T01:23:41;97132.22;;;9.25;52.09
65754;BME280;52488;47.502;18.940;2023-03-14T01:24:45;97124.84;;;9.16;52.52
65754;BME280;52488;47.502;18.940;2023-03-14T01:25:48;97121.97;;;9.14;52.66
65754;BME280;52488;47.502;18.940;2023-03-14T01:26:51;97121.34;;;9.16;52.48
65754;BME280;52488;47.502;18.940;2023-03-14T01:27:54;97120.28;;;9.21;52.54
65754;BME280;52488;47.502;18.940;2023-03-14T01:28:57;97103.84;;;9.21;52.63
65754;BME280;52488;47.502;18.940;2023-03-14T01:30:00;97107.78;;;9.30;52.40
65754;BME280;52488;47.502;18.940;2023-03-14T01:31:08;97101.81;;;9.33;52.09
65754;BME280;52488;47.502;18.940;2023-03-14T01:32:12;97095.97;;;9.39;51.90
65754;BME280;52488;47.502;18.940;2023-03-14T01:33:15;97103.22;;;9.46;51.52
65754;BME280;52488;47.502;18.940;2023-03-14T01:34:19;97090.56;;;9.52;51.35
65754;BME280;52488;47.502;18.940;2023-03-14T01:35:21;97093.91;;;9.51;51.54
65754;BME280;52488;47.502;18.940;2023-03-14T01:36:24;97101.66;;;9.43;51.82
65754;BME280;52488;47.502;18.940;2023-03-14T01:37:28;97102.25;;;9.53;51.45
65754;BME280;52488;47.502;18.940;2023-03-14T01:38:32;97090.19;;;9.58;51.11
65754;BME280;52488;47.502;18.940;2023-03-14T01:39:36;97098.19;;;9.54;51.15
65754;BME280;52488;47.502;18.940;2023-03-14T01:40:44;97094.16;;;9.55;51.29
65754;BME280;52488;47.502;18.940;2023-03-14T01:41:48;97092.59;;;9.52;51.31
65754;BME280;52488;47.502;18.940;2023-03-14T01:43:05;97091.03;;;9.49;51.51
65754;BME280;52488;47.502;18.940;2023-03-14T01:44:11;97093.56;;;9.45;51.82
65754;BME280;52488;47.502;18.940;2023-03-14T01:47:15;97086.28;;;9.61;51.82
65754;BME280;52488;47.502;18.940;2023-03-14T01:48:21;97078.97;;;9.66;51.65
65754;BME280;52488;47.502;18.940;2023-03-14T01:49:31;97084.06;;;9.71;51.57
65754;BME280;52488;47.502;18.940;2023-03-14T01:50:36;97081.84;;;9.68;51.79
65754;BME280;52488;47.502;18.940;2023-03-14T01:52:05;97077.66;;;9.67;51.76
65754;BME280;52488;47.502;18.940;2023-03-14T01:53:05;97075.06;;;9.57;52.21
65754;BME280;52488;47.502;18.940;2023-03-14T01:54:20;97077.44;;;9.63;51.93
65754;BME280;52488;47.502;18.940;2023-03-14T01:55:24;97074.13;;;9.52;52.29
65754;BME280;52488;47.502;18.940;2023-03-14T01:56:28;97076.38;;;9.56;52.15
65754;BME280;52488;47.502;18.940;2023-03-14T01:57:35;97070.06;;;9.53;52.26
65754;BME280;52488;47.502;18.940;2023-03-14T01:58:43;97071.84;;;9.61;52.04
65754;BME280;52488;47.502;18.940;2023-03-14T01:59:54;97065.84;;;9.64;51.91
65754;BME280;52488;47.502;18.940;2023-03-14T02:01:01;97062.34;;;9.75;51.34
65754;BME280;52488;47.502;18.940;2023-03-14T02:02:06;97065.94;;;9.78;51.30
65754;BME280;52488;47.502;18.940;2023-03-14T02:03:16;97059.63;;;9.75;51.36
65754;BME280;52488;47.502;18.940;2023-03-14T02:04:20;97055.88;;;9.83;51.04
65754;BME280;52488;47.502;18.940;2023-03-14T02:05:32;97049.59;;;9.80;51.05
65754;BME280;52488;47.502;18.940;2023-03-14T02:08:08;97061.50;;;9.85;50.88
65754;BME280;52488;47.502;18.940;2023-03-14T02:09:12;97042.53;;;9.89;50.71
65754;BME280;52488;47.502;18.940;2023-03-14T02:10:17;97043.44;;;9.93;50.66
65754;BME280;52488;47.502;18.940;2023-03-14T02:11:26;97048.09;;;9.91;50.96
65754;BME280;52488;47.502;18.940;2023-03-14T02:12:31;97044.28;;;9.96;50.52
65754;BME280;52488;47.502;18.940;2023-03-14T02:13:35;97041.34;;;10.05;50.40
65754;BME280;52488;47.502;18.940;2023-03-14T02:14:38;97030.47;;;10.08;50.12
65754;BME280;52488;47.502;18.940;2023-03-14T02:15:42;97031.09;;;10.06;50.44
65754;BME280;52488;47.502;18.940;2023-03-14T02:16:45;97032.84;;;10.13;49.97
65754;BME280;52488;47.502;18.940;2023-03-14T02:17:48;97024.28;;;10.07;50.42
65754;BME280;52488;47.502;18.940;2023-03-14T02:18:52;97033.44;;;10.12;50.07
65754;BME280;52488;47.502;18.940;2023-03-14T02:21:38;97025.00;;;10.08;50.11
65754;BME280;52488;47.502;18.940;2023-03-14T02:22:47;97020.53;;;10.14;49.82
65754;BME280;52488;47.502;18.940;2023-03-14T02:25:06;97023.69;;;10.09;50.23
65754;BME280;52488;47.502;18.940;2023-03-14T02:26:20;97018.72;;;10.19;49.59
65754;BME280;52488;47.502;18.940;2023-03-14T02:27:26;97024.81;;;10.17;49.70
65754;BME280;52488;47.502;18.940;2023-03-14T02:28:29;97012.44;;;10.16;49.46
65754;BME280;52488;47.502;18.940;2023-03-14T02:29:36;97018.50;;;10.15;49.54
65754;BME280;52488;47.502;18.940;2023-03-14T02:30:42;97016.16;;;10.09;49.84
65754;BME280;52488;47.502;18.940;2023-03-14T02:31:46;97019.41;;;10.05;49.83
65754;BME280;52488;47.502;18.940;2023-03-14T02:32:54;97017.88;;;10.02;49.95
65754;BME280;52488;47.502;18.940;2023-03-14T02:33:58;97006.09;;;10.14;49.52
65754;BME280;52488;47.502;18.940;2023-03-14T02:35:08;97005.09;;;10.21;49.42
65754;BME280;52488;47.502;18.940;2023-03-14T02:36:13;97006.66;;;10.24;49.34
65754;BME280;52488;47.502;18.940;2023-03-14T02:37:19;96998.91;;;10.20;49.53
65754;BME280;52488;47.502;18.940;2023-03-14T02:38:52;97005.00;;;10.19;49.58
65754;BME280;52488;47.502;18.940;2023-03-14T02:39:59;97008.69;;;10.23;49.27
65754;BME280;52488;47.502;18.940;2023-03-14T02:41:02;96997.22;;;10.27;49.00
65754;BME280;52488;47.502;18.940;2023-03-14T02:42:05;97000.31;;;10.21;49.35
65754;BME280;52488;47.502;18.940;2023-03-14T02:43:08;97001.53;;;10.18;49.32
65754;BME280;52488;47.502;18.940;2023-03-14T02:44:11;97002.03;;;10.15;49.47
65754;BME280;52488;47.502;18.940;2023-03-14T02:46:20;96993.41;;;10.20;49.17
65754;BME280;52488;47.502;18.940;2023-03-14T02:47:28;96999.19;;;10.13;49.50
65754;BME280;52488;47.502;18.940;2023-03-14T02:48:46;96998.72;;;10.16;49.34
65754;BME280;52488;47.502;18.940;2023-03-14T02:49:53;96998.97;;;10.09;49.40
65754;BME280;52488;47.502;18.940;2023-03-14T02:51:00;96995.91;;;10.02;49.74
65754;BME280;52488;47.502;18.940;2023-03-14T02:52:04;96994.97;;;9.98;49.96
65754;BME280;52488;47.502;18.940;2023-03-14T02:53:07;97006.97;;;9.91;50.00
65754;BME280;52488;47.502;18.940;2023-03-14T02:54:10;96987.44;;;9.85;50.26
65754;BME280;52488;47.502;18.940;2023-03-14T02:55:14;96986.12;;;9.86;50.25
65754;BME280;52488;47.502;18.940;2023-03-14T02:56:17;96983.03;;;9.79;50.47
65754;BME280;52488;47.502;18.940;2023-03-14T02:57:20;96969.22;;;9.77;50.41
65754;BME280;52488;47.502;18.940;2023-03-14T02:58:24;96969.44;;;9.82;50.37
65754;BME280;52488;47.502;18.940;2023-03-14T02:59:27;96978.28;;;9.80;50.37
65754;BME280;52488;47.502;18.940;2023-03-14T03:00:30;96978.38;;;9.82;50.37
65754;BME280;52488;47.502;18.940;2023-03-14T03:01:34;96977.78;;;9.84;50.45
65754;BME280;52488;47.502;18.940;2023-03-14T03:02:37;96994.03;;;9.79;50.60
65754;BME280;52488;47.502;18.940;2023-03-14T03:03:40;96984.19;;;9.88;50.26
65754;BME280;52488;47.502;18.940;2023-03-14T03:04:43;96986.81;;;9.86;50.52
65754;BME280;52488;47.502;18.940;2023-03-14T03:05:50;96984.78;;;9.87;50.44
65754;BME280;52488;47.502;18.940;2023-03-14T03:06:54;96979.22;;;9.98;50.11
65754;BME280;52488;47.502;18.940;2023-03-14T03:07:57;96970.41;;;10.00;50.23
65754;BME280;52488;47.502;18.940;2023-03-14T03:09:00;96971.50;;;9.95;50.49
65754;BME280;52488;47.502;18.940;2023-03-14T03:10:04;96966.03;;;9.95;50.37
65754;BME280;52488;47.502;18.940;2023-03-14T03:11:10;96969.69;;;9.99;50.25
65754;BME280;52488;47.502;18.940;2023-03-14T03:12:13;96970.59;;;10.04;50.16
65754;BME280;52488;47.502;18.940;2023-03-14T03:13:17;96959.44;;;10.00;50.25
65754;BME280;52488;47.502;18.940;2023-03-14T03:14:20;96977.81;;;9.97;50.31
65754;BME280;52488;47.502;18.940;2023-03-14T03:15:23;96966.03;;;9.95;50.57
65754;BME280;52488;47.502;18.940;2023-03-14T03:16:26;96966.66;;;10.07;50.11
65754;BME280;52488;47.502;18.940;2023-03-14T03:17:29;96968.25;;;9.98;50.38
65754;BME280;52488;47.502;18.940;2023-03-14T03:18:33;96972.44;;;9.99;50.42
65754;BME280;52488;47.502;18.940;2023-03-14T03:19:36;96964.09;;;9.97;50.76
65754;BME280;52488;47.502;18.940;2023-03-14T03:20:39;96964.00;;;9.95;50.54
65754;BME280;52488;47.502;18.940;2023-03-14T03:21:43;96960.75;;;9.99;50.49
65754;BME280;52488;47.502;18.940;2023-03-14T03:22:46;96957.78;;;9.95;50.52
65754;BME280;52488;47.502;18.940;2023-03-14T03:23:50;96960.31;;;9.91;50.77
65754;BME280;52488;47.502;18.940;2023-03-14T03:24:53;96965.50;;;9.85;51.07
65754;BME280;52488;47.502;18.940;2023-03-14T03:25:56;96954.19;;;9.78;51.17
65754;BME280;52488;47.502;18.940;2023-03-14T03:26:59;96960.41;;;9.79;51.31
65754;BME280;52488;47.502;18.940;2023-03-14T03:28:03;96950.13;;;9.79;51.22
65754;BME280;52488;47.502;18.940;2023-03-14T03:29:10;96954.63;;;9.87;51.04
65754;BME280;52488;47.502;18.940;2023-03-14T03:30:13;96955.41;;;9.75;51.49
65754;BME280;52488;47.502;18.940;2023-03-14T03:31:18;96956.81;;;9.76;51.45
65754;BME280;52488;47.502;18.940;2023-03-14T03:32:21;96960.87;;;9.75;51.50
65754;BME280;52488;47.502;18.940;2023-03-14T03:33:24;96961.50;;;9.74;51.43
65754;BME280;52488;47.502;18.940;2023-03-14T03:34:27;96950.75;;;9.78;51.55
65754;BME280;52488;47.502;18.940;2023-03-14T03:35:31;96960.87;;;9.75;51.66
65754;BME280;52488;47.502;18.940;2023-03-14T03:36:34;96952.44;;;9.71;51.84
65754;BME280;52488;47.502;18.940;2023-03-14T03:37:37;96948.50;;;9.74;51.69
65754;BME280;52488;47.502;18.940;2023-03-14T03:38:42;96958.13;;;9.75;51.53
65754;BME280;52488;47.502;18.940;2023-03-14T03:39:45;96949.81;;;9.73;51.59
65754;BME280;52488;47.502;18.940;2023-03-14T03:40:48;96946.16;;;9.83;51.24
65754;BME280;52488;47.502;18.940;2023-03-14T03:41:51;96945.25;;;9.78;51.52
65754;BME280;52488;47.502;18.940;2023-03-14T03:42:54;96958.84;;;9.76;51.56
65754;BME280;52488;47.502;18.940;2023-03-14T03:43:58;96944.56;;;9.77;51.51
65754;BME280;52488;47.502;18.940;2023-03-14T03:45:02;96939.06;;;9.77;51.50
65754;BME280;52488;47.502;18.940;2023-03-14T03:46:07;96937.75;;;9.78;51.45
65754;BME280;52488;47.502;18.940;2023-03-14T03:47:10;96939.88;;;9.80;51.46
65754;BME280;52488;47.502;18.940;2023-03-14T03:48:14;96939.25;;;9.82;51.45
65754;BME280;52488;47.502;18.940;2023-03-14T03:49:17;96939.66;;;9.76;51.68
65754;BME280;52488;47.502;18.940;2023-03-14T03:50:20;96933.91;;;9.84;51.33
65754;BME280;52488;47.502;18.940;2023-03-14T03:51:23;96934.47;;;9.82;51.33
65754;BME280;52488;47.502;18.940;2023-03-14T03:52:26;96938.22;;;9.75;51.72
65754;BME280;52488;47.502;18.940;2023-03-14T03:53:30;96938.06;;;9.85;51.31
65754;BME280;52488;47.502;18.940;2023-03-14T03:54:35;96940.81;;;9.85;51.26
65754;BME280;52488;47.502;18.940;2023-03-14T03:55:44;96938.38;;;9.91;51.13
65754;BME280;52488;47.502;18.940;2023-03-14T03:56:47;96941.22;;;9.93;50.98
65754;BME280;52488;47.502;18.940;2023-03-14T03:57:51;96948.03;;;9.92;51.04
65754;BME280;52488;47.502;18.940;2023-03-14T03:58:55;96939.78;;;9.92;51.11
65754;BME280;52488;47.502;18.940;2023-03-14T03:59:58;96934.69;;;9.86;51.14
65754;BME280;52488;47.502;18.940;2023-03-14T04:01:01;96942.53;;;9.92;51.11
65754;BME280;52488;47.502;18.940;2023-03-14T04:02:04;96935.72;;;9.93;50.93
65754;BME280;52488;47.502;18.940;2023-03-14T04:03:07;96941.50;;;9.85;51.24
65754;BME280;52488;47.502;18.940;2023-03-14T04:04:11;96937.84;;;9.81;51.51
65754;BME280;52488;47.502;18.940;2023-03-14T04:05:14;96952.16;;;9.79;51.61
65754;BME280;52488;47.502;18.940;2023-03-14T04:06:17;96955.69;;;9.68;51.85
65754;BME280;52488;47.502;18.940;2023-03-14T04:07:20;96952.44;;;9.71;51.67
65754;BME280;52488;47.502;18.940;2023-03-14T04:08:24;96945.81;;;9.63;52.05
65754;BME280;52488;47.502;18.940;2023-03-14T04:09:27;96938.19;;;9.61;52.10
65754;BME280;52488;47.502;18.940;2023-03-14T04:10:33;96932.00;;;9.61;52.20
65754;BME280;52488;47.502;18.940;2023-03-14T04:11:37;96938.25;;;9.49;52.71
65754;BME280;52488;47.502;18.940;2023-03-14T04:12:40;96952.06;;;9.51;52.58
65754;BME280;52488;47.502;18.940;2023-03-14T04:13:43;96930.28;;;9.42;52.86
65754;BME280;52488;47.502;18.940;2023-03-14T04:14:46;96926.47;;;9.47;52.74
65754;BME280;52488;47.502;18.940;2023-03-14T04:15:51;96943.78;;;9.38;53.05
65754;BME280;52488;47.502;18.940;2023-03-14T04:16:54;96934.34;;;9.41;53.04
65754;BME280;52488;47.502;18.940;2023-03-14T04:17:58;96930.41;;;9.44;52.90
65754;BME280;52488;47.502;18.940;2023-03-14T04:19:02;96943.06;;;9.37;53.06
65754;BME280;52488;47.502;18.940;2023-03-14T04:20:06;96953.47;;;9.27;53.40
65754;BME280;52488;47.502;18.940;2023-03-14T04:21:14;96947.97;;;9.27;53.58
65754;BME280;52488;47.502;18.940;2023-03-14T04:22:17;96941.22;;;9.28;53.51
65754;BME280;52488;47.502;18.940;2023-03-14T04:23:21;96941.22;;;9.28;53.52
65754;BME280;52488;47.502;18.940;2023-03-14T04:24:26;96936.22;;;9.24;53.65
65754;BME280;52488;47.502;18.940;2023-03-14T04:25:29;96935.28;;;9.20;53.88
65754;BME280;52488;47.502;18.940;2023-03-14T04:26:33;96947.31;;;9.15;54.15
65754;BME280;52488;47.502;18.940;2023-03-14T04:27:36;96936.59;;;9.19;53.99
65754;BME280;52488;47.502;18.940;2023-03-14T04:28:41;96940.31;;;9.12;54.07
65754;BME280;52488;47.502;18.940;2023-03-14T04:29:44;96935.41;;;9.10;54.13
65754;BME280;52488;47.502;18.940;2023-03-14T04:30:48;96936.03;;;9.09;54.20
65754;BME280;52488;47.502;18.940;2023-03-14T04:31:51;96933.19;;;9.07;54.39
65754;BME280;52488;47.502;18.940;2023-03-14T04:32:54;96937.09;;;9.04;54.41
65754;BME280;52488;47.502;18.940;2023-03-14T04:33:57;96944.03;;;8.93;54.73
65754;BME280;52488;47.502;18.940;2023-03-14T04:35:00;96929.87;;;8.96;54.65
65754;BME280;52488;47.502;18.940;2023-03-14T04:36:05;96935.72;;;8.91;54.71
65754;BME280;52488;47.502;18.940;2023-03-14T04:37:08;96927.03;;;8.83;55.09
65754;BME280;52488;47.502;18.940;2023-03-14T04:38:12;96940.88;;;8.73;55.35
65754;BME280;52488;47.502;18.940;2023-03-14T04:39:15;96934.72;;;8.61;55.83
65754;BME280;52488;47.502;18.940;2023-03-14T04:40:18;96943.31;;;8.55;55.84
65754;BME280;52488;47.502;18.940;2023-03-14T04:41:21;96951.38;;;8.53;56.09
65754;BME280;52488;47.502;18.940;2023-03-14T04:42:25;96950.78;;;8.55;56.11
65754;BME280;52488;47.502;18.940;2023-03-14T04:43:28;96936.16;;;8.50;56.30
65754;BME280;52488;47.502;18.940;2023-03-14T04:44:31;96947.47;;;8.56;56.16
65754;BME280;52488;47.502;18.940;2023-03-14T04:45:34;96946.75;;;8.56;56.31
65754;BME280;52488;47.502;18.940;2023-03-14T04:46:37;96927.78;;;8.71;55.77
65754;BME280;52488;47.502;18.940;2023-03-14T04:47:41;96948.75;;;8.67;55.87
65754;BME280;52488;47.502;18.940;2023-03-14T04:48:45;96936.72;;;8.60;56.08
65754;BME280;52488;47.502;18.940;2023-03-14T04:49:48;96934.34;;;8.66;55.92
65754;BME280;52488;47.502;18.940;2023-03-14T04:50:52;96950.31;;;8.58;56.21
65754;BME280;52488;47.502;18.940;2023-03-14T04:51:55;96948.75;;;8.43;56.69
65754;BME280;52488;47.502;18.940;2023-03-14T04:52:58;96924.50;;;8.38;56.79
65754;BME280;52488;47.502;18.940;2023-03-14T04:54:01;96946.38;;;8.38;56.92
65754;BME280;52488;47.502;18.940;2023-03-14T04:55:04;96945.66;;;8.26;57.31
65754;BME280;52488;47.502;18.940;2023-03-14T04:56:08;96939.22;;;8.33;57.19
65754;BME280;52488;47.502;18.940;2023-03-14T04:57:11;96933.62;;;8.31;57.15
65754;BME280;52488;47.502;18.940;2023-03-14T04:58:14;96948.88;;;8.34;57.08
65754;BME280;52488;47.502;18.940;2023-03-14T04:59:17;96944.94;;;8.25;57.45
65754;BME280;52488;47.502;18.940;2023-03-14T05:00:20;96937.56;;;8.16;57.81
65754;BME280;52488;47.502;18.940;2023-03-14T05:01:23;96946.34;;;8.14;57.89
65754;BME280;52488;47.502;18.940;2023-03-14T05:02:26;96933.03;;;8.20;57.67
65754;BME280;52488;47.502;18.940;2023-03-14T05:03:29;96944.34;;;8.15;57.81
65754;BME280;52488;47.502;18.940;2023-03-14T05:04:33;96933.38;;;8.15;57.89
65754;BME280;52488;47.502;18.940;2023-03-14T05:05:36;96943.25;;;8.08;58.10
65754;BME280;52488;47.502;18.940;2023-03-14T05:06:39;96945.19;;;8.06;58.22
65754;BME280;52488;47.502;18.940;2023-03-14T05:07:43;96947.78;;;8.04;58.38
65754;BME280;52488;47.502;18.940;2023-03-14T05:08:49;96930.66;;;8.03;58.31
65754;BME280;52488;47.502;18.940;2023-03-14T05:09:52;96934.09;;;8.04;58.43
65754;BME280;52488;47.502;18.940;2023-03-14T05:10:57;96939.72;;;8.06;58.46
65754;BME280;52488;47.502;18.940;2023-03-14T05:12:00;96935.06;;;8.08;58.42
65754;BME280;52488;47.502;18.940;2023-03-14T05:13:03;96932.06;;;8.16;58.29
65754;BME280;52488;47.502;18.940;2023-03-14T05:14:06;96931.59;;;8.31;57.71
65754;BME280;52488;47.502;18.940;2023-03-14T05:15:09;96929.72;;;8.34;57.54
65754;BME280;52488;47.502;18.940;2023-03-14T05:16:12;96933.53;;;8.40;57.39
65754;BME280;52488;47.502;18.940;2023-03-14T05:17:16;96927.47;;;8.42;57.25
65754;BME280;52488;47.502;18.940;2023-03-14T05:18:19;96931.28;;;8.37;57.49
65754;BME280;52488;47.502;18.940;2023-03-14T05:19:22;96939.47;;;8.37;57.62
65754;BME280;52488;47.502;18.940;2023-03-14T05:20:25;96934.00;;;8.49;57.13
65754;BME280;52488;47.502;18.940;2023-03-14T05:21:28;96928.16;;;8.54;56.93
65754;BME280;52488;47.502;18.940;2023-03-14T05:22:31;96926.16;;;8.66;56.42
65754;BME280;52488;47.502;18.940;2023-03-14T05:23:34;96932.44;;;8.69;56.34
65754;BME280;52488;47.502;18.940;2023-03-14T05:24:37;96927.78;;;8.71;56.46
65754;BME280;52488;47.502;18.940;2023-03-14T05:25:40;96920.41;;;8.74;56.25
65754;BME280;52488;47.502;18.940;2023-03-14T05:26:43;96926.94;;;8.81;56.13
65754;BME280;52488;47.502;18.940;2023-03-14T05:27:46;96910.03;;;8.84;55.67
65754;BME280;52488;47.502;18.940;2023-03-14T05:28:50;96919.66;;;8.85;55.83
65754;BME280;52488;47.502;18.940;2023-03-14T05:29:53;96924.19;;;8.81;55.98
65754;BME280;52488;47.502;18.940;2023-03-14T05:30:56;96921.47;;;8.81;56.09
65754;BME280;52488;47.502;18.940;2023-03-14T05:31:59;96933.25;;;8.83;55.95
65754;BME280;52488;47.502;18.940;2023-03-14T05:33:03;96923.44;;;8.92;55.41
65754;BME280;52488;47.502;18.940;2023-03-14T05:34:06;96915.22;;;8.92;55.35
65754;BME280;52488;47.502;18.940;2023-03-14T05:35:09;96932.88;;;8.89;55.59
65754;BME280;52488;47.502;18.940;2023-03-14T05:36:12;96936.34;;;8.89;55.64
65754;BME280;52488;47.502;18.940;2023-03-14T05:37:15;96938.34;;;8.89;55.62
65754;BME280;52488;47.502;18.940;2023-03-14T05:38:22;96925.38;;;8.89;55.77
65754;BME280;52488;47.502;18.940;2023-03-14T05:39:25;96927.88;;;8.85;55.87
65754;BME280;52488;47.502;18.940;2023-03-14T05:40:28;96921.03;;;8.98;55.32
65754;BME280;52488;47.502;18.940;2023-03-14T05:41:31;96928.31;;;8.93;55.25
65754;BME280;52488;47.502;18.940;2023-03-14T05:42:34;96929.44;;;8.88;55.46
65754;BME280;52488;47.502;18.940;2023-03-14T05:43:37;96922.28;;;8.83;55.53
65754;BME280;52488;47.502;18.940;2023-03-14T05:44:40;96922.16;;;8.81;55.59
65754;BME280;52488;47.502;18.940;2023-03-14T05:45:43;96929.31;;;8.86;55.49
65754;BME280;52488;47.502;18.940;2023-03-14T05:46:46;96929.25;;;8.98;54.93
65754;BME280;52488;47.502;18.940;2023-03-14T05:47:49;96919.28;;;8.91;55.10